Time;durP1;ratioP1;P1;durP2;ratioP2;P2;SDS_P1;SDS_P2;PMS_P1;PMS_P2;Temp;Humidity;BMP_temperature;BMP_pressure;BME280_temperature;BME280_humidity;BME280_pressure;Samples;Min_cycle;Max_cycle;Signal;HPM_P1;HPM_P2
2024/04/21 00:00:47;;;;;;;17.35;4.35;;;;;;;;;;5382273;26;20032;-84
2024/04/21 00:03:17;;;;;;;11.93;4.63;;;;;;;;;;5383819;26;20056;-83
2024/04/21 00:05:47;;;;;;;10.45;4.18;;;;;;;;;;5378776;26;20040;-85
2024/04/21 00:08:17;;;;;;;12.20;4.32;;;;;;;;;;5374353;26;20043;-84
2024/04/21 00:10:47;;;;;;;9.13;4.22;;;;;;;;;;5357031;26;20036;-84
2024/04/21 00:13:19;;;;;;;9.60;4.80;;;;;;;;;;5347233;26;20352;-85
2024/04/21 00:15:50;;;;;;;10.15;4.40;;;;;;;;;;5346871;26;20029;-84
2024/04/21 00:18:20;;;;;;;10.65;4.78;;;;;;;;;;5346622;26;20026;-86
2024/04/21 00:20:49;;;;;;;9.48;4.45;;;;;;;;;;5345210;26;20019;-84
2024/04/21 00:23:19;;;;;;;13.48;4.97;;;;;;;;;;5345422;26;20017;-83
2024/04/21 00:26:00;;;;;;;10.05;4.53;;;;;;;;;;5357654;26;20027;-84
2024/04/21 00:28:30;;;;;;;12.73;4.75;;;;;;;;;;5379016;26;20032;-85
2024/04/21 00:31:01;;;;;;;14.35;5.15;;;;;;;;;;5379753;26;20031;-84
2024/04/21 00:33:31;;;;;;;12.15;4.53;;;;;;;;;;5389282;26;20035;-84
2024/04/21 00:36:01;;;;;;;10.65;4.53;;;;;;;;;;5389599;26;20370;-84
2024/04/21 00:38:32;;;;;;;11.23;4.25;;;;;;;;;;5396383;26;20024;-84
2024/04/21 00:41:03;;;;;;;11.82;4.38;;;;;;;;;;5400853;26;20032;-85
2024/04/21 00:43:32;;;;;;;12.25;3.90;;;;;;;;;;5399800;26;20036;-82
2024/04/21 00:46:03;;;;;;;13.23;4.20;;;;;;;;;;5378319;26;20501;-83
2024/04/21 00:48:34;;;;;;;9.68;4.05;;;;;;;;;;5379148;26;20115;-84
2024/04/21 00:51:07;;;;;;;10.75;4.05;;;;;;;;;;5379381;26;20076;-85
2024/04/21 00:53:38;;;;;;;14.27;4.65;;;;;;;;;;5379110;26;20044;-85
2024/04/21 00:56:10;;;;;;;13.85;4.25;;;;;;;;;;5377914;26;20017;-84
2024/04/21 00:58:40;;;;;;;;;;;;;;;;;;5377665;26;20028;-85
2024/04/21 01:01:11;;;;;;;11.88;4.18;;;;;;;;;;5379123;26;20068;-85
2024/04/21 01:03:41;;;;;;;12.35;4.40;;;;;;;;;;5378424;26;20028;-84
2024/04/21 01:06:11;;;;;;;13.32;4.80;;;;;;;;;;5379056;26;20467;-84
2024/04/21 01:08:41;;;;;;;13.27;5.05;;;;;;;;;;5378465;26;20036;-84
2024/04/21 01:11:21;;;;;;;11.35;5.35;;;;;;;;;;5378651;26;20032;-83
2024/04/21 01:13:52;;;;;;;12.57;4.40;;;;;;;;;;5378399;26;20036;-84
2024/04/21 01:16:22;;;;;;;13.63;4.63;;;;;;;;;;5375865;26;20052;-84
2024/04/21 01:18:52;;;;;;;8.48;3.78;;;;;;;;;;5378679;26;20028;-85
2024/04/21 01:21:22;;;;;;;13.43;4.50;;;;;;;;;;5378621;26;20084;-84
2024/04/21 01:23:52;;;;;;;10.45;4.45;;;;;;;;;;5377160;26;20358;-82
2024/04/21 01:26:25;;;;;;;19.02;4.43;;;;;;;;;;5377080;26;20036;-84
2024/04/21 01:28:55;;;;;;;13.05;4.40;;;;;;;;;;5376909;26;20056;-84
2024/04/21 01:31:27;;;;;;;10.30;4.00;;;;;;;;;;5379095;26;20036;-84
2024/04/21 01:33:57;;;;;;;12.23;4.30;;;;;;;;;;5380480;26;20036;-84
2024/04/21 01:36:27;;;;;;;12.60;4.47;;;;;;;;;;5381603;26;20056;-85
2024/04/21 01:38:57;;;;;;;20.17;5.10;;;;;;;;;;5380240;26;20044;-84
2024/04/21 01:41:27;;;;;;;13.23;4.22;;;;;;;;;;5379930;26;20056;-87
2024/04/21 01:43:57;;;;;;;13.93;4.90;;;;;;;;;;5381109;26;20044;-84
2024/04/21 01:46:27;;;;;;;8.90;3.92;;;;;;;;;;5380472;26;20035;-85
2024/04/21 01:48:57;;;;;;;10.15;4.45;;;;;;;;;;5379673;26;20032;-84
2024/04/21 01:51:27;;;;;;;10.05;4.75;;;;;;;;;;5379480;26;20032;-84
2024/04/21 01:53:57;;;;;;;12.75;4.95;;;;;;;;;;5379721;26;20028;-85
2024/04/21 01:56:26;;;;;;;19.27;6.80;;;;;;;;;;5381457;26;20036;-84
2024/04/21 01:58:56;;;;;;;14.60;4.85;;;;;;;;;;5379280;26;20028;-86
2024/04/21 02:01:26;;;;;;;12.82;5.03;;;;;;;;;;5381456;26;20028;-86
2024/04/21 02:03:57;;;;;;;11.73;4.75;;;;;;;;;;5381149;26;20031;-84
2024/04/21 02:06:27;;;;;;;10.90;4.60;;;;;;;;;;5379645;26;20032;-84
2024/04/21 02:08:57;;;;;;;10.98;4.15;;;;;;;;;;5379275;26;20024;-84
2024/04/21 02:11:27;;;;;;;13.68;4.82;;;;;;;;;;5351176;26;20373;-84
2024/04/21 02:13:57;;;;;;;10.77;5.00;;;;;;;;;;5388574;26;20028;-84
2024/04/21 02:16:27;;;;;;;14.65;4.88;;;;;;;;;;5414298;26;20431;-88
2024/04/21 02:18:57;;;;;;;14.23;5.40;;;;;;;;;;5416139;26;20039;-85
2024/04/21 02:21:29;;;;;;;10.90;4.50;;;;;;;;;;5416816;26;20051;-85
2024/04/21 02:23:59;;;;;;;16.52;4.43;;;;;;;;;;5385803;26;20027;-83
2024/04/21 02:26:29;;;;;;;14.63;5.53;;;;;;;;;;5414930;26;20027;-83
2024/04/21 02:28:58;;;;;;;11.88;4.80;;;;;;;;;;5415852;26;20031;-84
2024/04/21 02:31:29;;;;;;;12.23;4.75;;;;;;;;;;5416338;26;20114;-84
2024/04/21 02:34:01;;;;;;;11.68;4.53;;;;;;;;;;5414115;26;20035;-84
2024/04/21 02:36:31;;;;;;;11.00;4.25;;;;;;;;;;5414546;26;20458;-85
2024/04/21 02:39:02;;;;;;;10.30;4.82;;;;;;;;;;5414242;26;20498;-85
2024/04/21 02:41:32;;;;;;;12.48;4.80;;;;;;;;;;5416041;26;20028;-86
2024/04/21 02:44:02;;;;;;;9.48;4.43;;;;;;;;;;5403294;26;20462;-85
2024/04/21 02:46:32;;;;;;;10.20;4.68;;;;;;;;;;5378972;26;20028;-87
2024/04/21 02:49:02;;;;;;;8.85;4.45;;;;;;;;;;5378192;26;20036;-84
2024/04/21 02:51:32;;;;;;;15.18;5.10;;;;;;;;;;5380984;26;20036;-84
2024/04/21 02:54:02;;;;;;;10.63;4.78;;;;;;;;;;5378768;26;20032;-84
2024/04/21 02:56:32;;;;;;;11.52;4.95;;;;;;;;;;5378846;26;20357;-87
2024/04/21 02:59:03;;;;;;;10.48;5.07;;;;;;;;;;5378268;26;20040;-84
2024/04/21 03:01:32;;;;;;;13.15;5.05;;;;;;;;;;5350763;26;20462;-84
2024/04/21 03:04:03;;;;;;;13.63;4.93;;;;;;;;;;5379752;26;20493;-86
2024/04/21 03:06:33;;;;;;;11.23;5.13;;;;;;;;;;5380428;26;20032;-84
2024/04/21 03:09:03;;;;;;;10.10;4.95;;;;;;;;;;5380154;26;20012;-84
2024/04/21 03:11:34;;;;;;;11.23;4.97;;;;;;;;;;5380128;26;20032;-84
2024/04/21 03:14:04;;;;;;;13.40;4.78;;;;;;;;;;5361274;26;20473;-84
2024/04/21 03:16:34;;;;;;;11.98;4.80;;;;;;;;;;5414129;26;20032;-84
2024/04/21 03:19:04;;;;;;;11.73;4.35;;;;;;;;;;5386619;26;20036;-84
2024/04/21 03:21:34;;;;;;;11.38;4.68;;;;;;;;;;5426589;26;19995;-83
2024/04/21 03:24:04;;;;;;;12.10;4.63;;;;;;;;;;5439157;26;19996;-84
2024/04/21 03:26:34;;;;;;;9.50;4.80;;;;;;;;;;5438393;26;20061;-84
2024/04/21 03:29:06;;;;;;;11.95;5.20;;;;;;;;;;5438932;26;19999;-84
2024/04/21 03:31:36;;;;;;;14.93;5.10;;;;;;;;;;5438389;26;19988;-84
2024/04/21 03:34:06;;;;;;;14.68;5.18;;;;;;;;;;5438526;26;19992;-84
2024/04/21 03:36:37;;;;;;;15.88;5.47;;;;;;;;;;5420718;26;20036;-83
2024/04/21 03:39:07;;;;;;;11.35;5.10;;;;;;;;;;5385786;26;20027;-85
2024/04/21 03:41:37;;;;;;;11.98;4.13;;;;;;;;;;5415262;26;20043;-85
2024/04/21 03:44:07;;;;;;;11.13;4.88;;;;;;;;;;5361709;26;20032;-83
2024/04/21 03:46:37;;;;;;;10.68;4.60;;;;;;;;;;5381684;26;20033;-83
2024/04/21 03:49:08;;;;;;;8.73;4.40;;;;;;;;;;5381631;26;20037;-83
2024/04/21 03:51:37;;;;;;;10.63;4.30;;;;;;;;;;5379124;26;20478;-84
2024/04/21 03:54:07;;;;;;;14.73;4.45;;;;;;;;;;5379679;26;20020;-84
2024/04/21 03:56:37;;;;;;;12.70;4.35;;;;;;;;;;5382094;26;20016;-84
2024/04/21 03:59:07;;;;;;;10.77;4.13;;;;;;;;;;5382033;26;20029;-85
2024/04/21 04:01:39;;;;;;;11.65;4.85;;;;;;;;;;5382444;26;20024;-83
2024/04/21 04:04:09;;;;;;;12.13;4.97;;;;;;;;;;5382356;26;20016;-83
2024/04/21 04:06:39;;;;;;;9.82;4.70;;;;;;;;;;5381622;26;20025;-83
2024/04/21 04:09:09;;;;;;;10.38;4.68;;;;;;;;;;5376649;26;20021;-84
2024/04/21 04:11:39;;;;;;;13.20;4.10;;;;;;;;;;5377717;26;20032;-83
2024/04/21 04:14:08;;;;;;;10.43;4.70;;;;;;;;;;5377069;26;20016;-83
2024/04/21 04:16:39;;;;;;;12.68;4.57;;;;;;;;;;5379423;26;20020;-85
2024/04/21 04:19:10;;;;;;;10.60;4.53;;;;;;;;;;5379067;26;20016;-85
2024/04/21 04:21:41;;;;;;;8.85;4.47;;;;;;;;;;5377106;26;20016;-83
2024/04/21 04:24:12;;;;;;;11.32;4.30;;;;;;;;;;5381630;26;20024;-84
2024/04/21 04:26:43;;;;;;;11.40;4.40;;;;;;;;;;5379925;26;20024;-84
2024/04/21 04:29:13;;;;;;;13.82;4.55;;;;;;;;;;5380061;26;20020;-83
2024/04/21 04:31:43;;;;;;;10.48;4.78;;;;;;;;;;5381667;26;20016;-83
2024/04/21 04:34:15;;;;;;;12.73;4.35;;;;;;;;;;5381708;26;20020;-83
2024/04/21 04:36:45;;;;;;;9.52;4.40;;;;;;;;;;5379685;26;20020;-84
2024/04/21 04:39:15;;;;;;;11.68;5.18;;;;;;;;;;5381518;26;20025;-86
2024/04/21 04:41:45;;;;;;;13.90;5.05;;;;;;;;;;5379888;26;20366;-84
2024/04/21 04:44:16;;;;;;;13.98;5.05;;;;;;;;;;5379895;26;20024;-85
2024/04/21 04:46:46;;;;;;;10.45;4.72;;;;;;;;;;5379838;26;20020;-83
2024/04/21 04:49:17;;;;;;;11.85;5.28;;;;;;;;;;5379851;26;20032;-83
2024/04/21 04:51:47;;;;;;;14.32;5.22;;;;;;;;;;5379338;26;20028;-84
2024/04/21 04:54:17;;;;;;;15.40;6.05;;;;;;;;;;5379987;26;20012;-84
2024/04/21 04:56:47;;;;;;;17.02;5.25;;;;;;;;;;5381180;26;20020;-84
2024/04/21 04:59:17;;;;;;;13.68;5.35;;;;;;;;;;5380890;26;20028;-84
2024/04/21 05:01:48;;;;;;;10.88;4.82;;;;;;;;;;5378463;26;20458;-83
2024/04/21 05:04:18;;;;;;;13.60;5.05;;;;;;;;;;5379146;26;20025;-85
2024/04/21 05:06:49;;;;;;;12.68;5.38;;;;;;;;;;5382274;26;20025;-84
2024/04/21 05:09:19;;;;;;;13.57;5.20;;;;;;;;;;5382875;26;20024;-84
2024/04/21 05:11:50;;;;;;;12.13;5.28;;;;;;;;;;5384881;26;20032;-86
2024/04/21 05:14:20;;;;;;;10.52;4.50;;;;;;;;;;5382682;26;20020;-83
2024/04/21 05:16:50;;;;;;;12.80;4.68;;;;;;;;;;5353975;26;20024;-85
2024/04/21 05:19:20;;;;;;;12.00;4.55;;;;;;;;;;5384568;26;20017;-82
2024/04/21 05:21:50;;;;;;;12.07;5.18;;;;;;;;;;5384348;26;20024;-84
2024/04/21 05:24:20;;;;;;;11.45;5.18;;;;;;;;;;5384660;26;20351;-84
2024/04/21 05:26:50;;;;;;;11.30;4.90;;;;;;;;;;5384350;26;20019;-83
2024/04/21 05:29:20;;;;;;;13.43;5.28;;;;;;;;;;5382704;26;20033;-83
2024/04/21 05:31:51;;;;;;;14.80;4.85;;;;;;;;;;5382420;26;20016;-85
2024/04/21 05:34:21;;;;;;;12.20;4.82;;;;;;;;;;5384091;26;20020;-83
2024/04/21 05:36:51;;;;;;;12.32;4.65;;;;;;;;;;5381607;26;20020;-83
2024/04/21 05:39:22;;;;;;;15.38;5.13;;;;;;;;;;5384401;26;20458;-84
2024/04/21 05:41:53;;;;;;;11.27;5.32;;;;;;;;;;5384367;26;20016;-84
2024/04/21 05:44:23;;;;;;;10.52;4.93;;;;;;;;;;5382540;26;20024;-84
2024/04/21 05:46:53;;;;;;;13.23;5.00;;;;;;;;;;5383922;26;20353;-84
2024/04/21 05:49:23;;;;;;;11.00;4.90;;;;;;;;;;5383777;26;20029;-84
2024/04/21 05:51:53;;;;;;;11.27;5.25;;;;;;;;;;5382199;26;20028;-86
2024/04/21 05:54:23;;;;;;;14.45;5.28;;;;;;;;;;5378699;26;20028;-86
2024/04/21 05:56:54;;;;;;;13.57;5.82;;;;;;;;;;5383993;26;20025;-84
2024/04/21 05:59:24;;;;;;;11.73;5.00;;;;;;;;;;5382070;26;20016;-85
2024/04/21 06:01:58;;;;;;;13.50;4.97;;;;;;;;;;5382841;26;20036;-85
2024/04/21 06:04:30;;;;;;;14.02;4.47;;;;;;;;;;5354811;26;20054;-84
2024/04/21 06:07:01;;;;;;;10.85;4.78;;;;;;;;;;5382148;26;20454;-83
2024/04/21 06:09:31;;;;;;;13.32;4.80;;;;;;;;;;5381927;26;20036;-82
2024/04/21 06:12:01;;;;;;;11.65;4.53;;;;;;;;;;5382074;26;20020;-83
2024/04/21 06:14:31;;;;;;;13.27;4.82;;;;;;;;;;5383798;26;20020;-83
2024/04/21 06:17:03;;;;;;;17.77;5.10;;;;;;;;;;5381476;26;20020;-83
2024/04/21 06:19:33;;;;;;;12.48;4.82;;;;;;;;;;5383553;26;20016;-83
2024/04/21 06:22:03;;;;;;;14.50;4.85;;;;;;;;;;5383428;26;20016;-83
2024/04/21 06:24:33;;;;;;;13.20;5.15;;;;;;;;;;5383291;26;20029;-82
2024/04/21 06:27:04;;;;;;;13.63;5.30;;;;;;;;;;5353146;26;20028;-83
2024/04/21 06:29:34;;;;;;;17.80;5.60;;;;;;;;;;5383562;26;20016;-82
2024/04/21 06:32:09;;;;;;;18.38;5.28;;;;;;;;;;5383205;26;20032;-81
2024/04/21 06:34:40;;;;;;;14.32;5.65;;;;;;;;;;5383313;26;20024;-82
2024/04/21 06:37:10;;;;;;;12.27;4.97;;;;;;;;;;5381408;26;20026;-81
2024/04/21 06:39:42;;;;;;;11.10;4.40;;;;;;;;;;5381839;26;20024;-81
2024/04/21 06:42:12;;;;;;;13.10;5.03;;;;;;;;;;5383070;26;20017;-85
2024/04/21 06:44:42;;;;;;;11.55;4.18;;;;;;;;;;5352620;26;20016;-83
2024/04/21 06:47:12;;;;;;;8.57;3.45;;;;;;;;;;5383129;26;20016;-83
2024/04/21 06:49:42;;;;;;;10.40;4.68;;;;;;;;;;5382861;26;20020;-85
2024/04/21 06:52:11;;;;;;;10.07;4.25;;;;;;;;;;5380716;26;20033;-82
2024/04/21 06:54:41;;;;;;;14.98;5.35;;;;;;;;;;5383041;26;20020;-83
2024/04/21 06:57:11;;;;;;;14.07;5.47;;;;;;;;;;5382988;26;20025;-83
2024/04/21 06:59:42;;;;;;;12.60;4.55;;;;;;;;;;5383262;26;20033;-83
2024/04/21 07:02:13;;;;;;;11.98;4.70;;;;;;;;;;5383009;26;20029;-84
2024/04/21 07:04:43;;;;;;;8.82;4.07;;;;;;;;;;5381351;26;20486;-86
2024/04/21 07:07:13;;;;;;;11.35;4.60;;;;;;;;;;5382681;26;20016;-85
2024/04/21 07:09:44;;;;;;;11.98;4.28;;;;;;;;;;5382767;26;20020;-83
2024/04/21 07:12:13;;;;;;;10.02;4.28;;;;;;;;;;5382512;26;20465;-84
2024/04/21 07:14:43;;;;;;;8.63;4.18;;;;;;;;;;5382677;26;20020;-82
2024/04/21 07:17:13;;;;;;;9.98;4.50;;;;;;;;;;5381227;26;20478;-83
2024/04/21 07:19:43;;;;;;;13.60;4.78;;;;;;;;;;5381345;26;20474;-82
2024/04/21 07:22:13;;;;;;;9.05;4.18;;;;;;;;;;5382527;26;20028;-82
2024/04/21 07:24:43;;;;;;;10.07;4.57;;;;;;;;;;5381082;26;20020;-82
2024/04/21 07:27:13;;;;;;;12.02;4.75;;;;;;;;;;5382272;26;20478;-83
2024/04/21 07:29:44;;;;;;;13.57;4.55;;;;;;;;;;5380304;26;20387;-82
2024/04/21 07:32:13;;;;;;;8.15;4.30;;;;;;;;;;5382610;26;20020;-83
2024/04/21 07:34:44;;;;;;;8.85;4.10;;;;;;;;;;5382494;26;20470;-85
2024/04/21 07:37:14;;;;;;;9.75;3.95;;;;;;;;;;5382390;26;20336;-83
2024/04/21 07:39:44;;;;;;;14.40;4.95;;;;;;;;;;5382510;26;20025;-83
2024/04/21 07:42:14;;;;;;;10.60;4.63;;;;;;;;;;5380874;26;20020;-83
2024/04/21 07:44:44;;;;;;;8.20;3.83;;;;;;;;;;5382798;26;20025;-83
2024/04/21 07:47:14;;;;;;;10.73;4.20;;;;;;;;;;5382315;26;20477;-82
2024/04/21 07:49:46;;;;;;;7.95;3.63;;;;;;;;;;5382245;26;20016;-85
2024/04/21 07:52:16;;;;;;;10.75;5.22;;;;;;;;;;5382896;26;20365;-81
2024/04/21 07:54:46;;;;;;;8.80;4.25;;;;;;;;;;5382234;26;20020;-82
2024/04/21 07:57:16;;;;;;;9.80;4.15;;;;;;;;;;5391102;26;20009;-85
2024/04/21 07:59:46;;;;;;;11.30;3.67;;;;;;;;;;5405085;26;19996;-82
2024/04/21 08:02:16;;;;;;;8.57;3.65;;;;;;;;;;5404959;26;19999;-82
2024/04/21 08:04:47;;;;;;;7.38;3.58;;;;;;;;;;5376702;26;20007;-84
2024/04/21 08:07:17;;;;;;;9.70;4.07;;;;;;;;;;5404840;26;19996;-81
2024/04/21 08:09:48;;;;;;;9.32;4.40;;;;;;;;;;5392932;26;20004;-83
2024/04/21 08:12:18;;;;;;;9.65;4.45;;;;;;;;;;5381962;26;20029;-83
2024/04/21 08:14:48;;;;;;;10.48;4.07;;;;;;;;;;5379612;26;20020;-82
2024/04/21 08:17:18;;;;;;;9.50;3.90;;;;;;;;;;5380678;26;20458;-81
2024/04/21 08:19:50;;;;;;;9.70;3.85;;;;;;;;;;5380057;26;20020;-84
2024/04/21 08:22:20;;;;;;;8.48;3.78;;;;;;;;;;5380262;26;20103;-82
2024/04/21 08:24:50;;;;;;;10.32;3.67;;;;;;;;;;5381655;26;20341;-82
2024/04/21 08:27:23;;;;;;;12.23;4.15;;;;;;;;;;5381951;26;20016;-83
2024/04/21 08:29:53;;;;;;;11.63;4.22;;;;;;;;;;5381969;26;20031;-84
2024/04/21 08:32:24;;;;;;;9.45;4.25;;;;;;;;;;5380773;26;20037;-83
2024/04/21 08:34:54;;;;;;;11.98;4.68;;;;;;;;;;5381281;26;20029;-83
2024/04/21 08:37:24;;;;;;;10.35;4.90;;;;;;;;;;5381327;26;20020;-82
2024/04/21 08:39:54;;;;;;;15.63;4.95;;;;;;;;;;5383459;26;20029;-81
2024/04/21 08:42:31;;;;;;;15.88;5.35;;;;;;;;;;5353969;26;20016;-82
2024/04/21 08:45:02;;;;;;;11.57;4.82;;;;;;;;;;5385029;26;20423;-83
2024/04/21 08:47:34;;;;;;;12.60;4.90;;;;;;;;;;5383326;26;20368;-83
2024/04/21 08:50:05;;;;;;;18.23;5.43;;;;;;;;;;5383788;26;20470;-83
2024/04/21 08:52:35;;;;;;;8.88;4.65;;;;;;;;;;5384656;26;20028;-83
2024/04/21 08:55:07;;;;;;;10.30;4.25;;;;;;;;;;5385329;26;20335;-84
2024/04/21 08:57:39;;;;;;;9.55;4.20;;;;;;;;;;5385035;26;20029;-85
2024/04/21 09:00:14;;;;;;;9.98;4.53;;;;;;;;;;5383886;26;20020;-85
2024/04/21 09:02:45;;;;;;;11.35;4.18;;;;;;;;;;5384555;26;20024;-83
2024/04/21 09:05:16;;;;;;;16.15;5.35;;;;;;;;;;5384635;26;20426;-81
2024/04/21 09:07:46;;;;;;;10.05;4.65;;;;;;;;;;5384670;26;20025;-83
2024/04/21 09:10:17;;;;;;;11.52;4.85;;;;;;;;;;5384769;26;20025;-84
2024/04/21 09:12:49;;;;;;;10.50;4.78;;;;;;;;;;5382697;26;20031;-82
2024/04/21 09:15:19;;;;;;;18.00;4.90;;;;;;;;;;5383178;26;20466;-83
2024/04/21 09:17:50;;;;;;;10.32;5.10;;;;;;;;;;5383021;26;20094;-83
2024/04/21 09:20:20;;;;;;;11.27;5.18;;;;;;;;;;5384586;26;20016;-83
2024/04/21 09:22:51;;;;;;;14.63;4.72;;;;;;;;;;5384399;26;20371;-84
2024/04/21 09:25:22;;;;;;;15.63;6.05;;;;;;;;;;5384589;26;20016;-82
2024/04/21 09:27:53;;;;;;;16.58;5.80;;;;;;;;;;5388024;26;20041;-83
2024/04/21 09:30:23;;;;;;;19.45;6.05;;;;;;;;;;5410858;26;20347;-84
2024/04/21 09:32:54;;;;;;;13.73;5.40;;;;;;;;;;5379286;26;20040;-83
2024/04/21 09:35:24;;;;;;;16.60;5.20;;;;;;;;;;5404019;26;20446;-85
2024/04/21 09:37:54;;;;;;;11.73;4.68;;;;;;;;;;5391679;26;20044;-84
2024/04/21 09:40:26;;;;;;;13.27;4.82;;;;;;;;;;5412915;26;20031;-82
2024/04/21 09:42:58;;;;;;;12.05;5.07;;;;;;;;;;5380332;26;20028;-81
2024/04/21 09:45:30;;;;;;;10.82;4.53;;;;;;;;;;5383468;26;20016;-82
2024/04/21 09:48:02;;;;;;;10.93;5.03;;;;;;;;;;5383859;26;20369;-82
2024/04/21 09:50:32;;;;;;;13.80;5.20;;;;;;;;;;5383544;26;20020;-84
2024/04/21 09:53:03;;;;;;;9.82;4.70;;;;;;;;;;5381685;26;20020;-83
2024/04/21 09:55:37;;;;;;;9.60;4.40;;;;;;;;;;5384029;26;20032;-82
2024/04/21 09:58:11;;;;;;;10.35;4.03;;;;;;;;;;5383957;26;20025;-84
2024/04/21 10:00:49;;;;;;;9.57;4.45;;;;;;;;;;5383823;26;20020;-83
2024/04/21 10:03:19;;;;;;;10.82;4.53;;;;;;;;;;5353807;26;20023;-83
2024/04/21 10:05:54;;;;;;;7.82;3.60;;;;;;;;;;5382135;26;20471;-82
2024/04/21 10:08:27;;;;;;;6.72;3.28;;;;;;;;;;5383865;26;20311;-82
2024/04/21 10:10:58;;;;;;;8.43;3.92;;;;;;;;;;5383698;26;20020;-84
2024/04/21 10:13:29;;;;;;;6.15;3.08;;;;;;;;;;5383576;26;20028;-82
2024/04/21 10:16:01;;;;;;;9.57;3.97;;;;;;;;;;5382281;26;20036;-82
2024/04/21 10:18:31;;;;;;;8.27;3.55;;;;;;;;;;5381813;26;20028;-83
2024/04/21 10:21:01;;;;;;;12.05;3.53;;;;;;;;;;5381787;26;20032;-85
2024/04/21 10:23:32;;;;;;;9.35;3.95;;;;;;;;;;5382491;26;20024;-84
2024/04/21 10:26:04;;;;;;;10.27;4.53;;;;;;;;;;5383479;26;20020;-83
2024/04/21 10:28:34;;;;;;;16.00;4.70;;;;;;;;;;5354108;26;20028;-83
2024/04/21 10:31:08;;;;;;;10.65;4.72;;;;;;;;;;5383565;26;20020;-82
2024/04/21 10:33:39;;;;;;;15.50;4.75;;;;;;;;;;5383115;26;20020;-82
2024/04/21 10:36:40;;;;;;;14.20;5.50;;;;;;;;;;5383345;26;20017;-82
2024/04/21 10:39:11;;;;;;;14.00;5.43;;;;;;;;;;5383150;26;20028;-82
2024/04/21 10:41:44;;;;;;;10.77;5.15;;;;;;;;;;5383061;26;20016;-84
2024/04/21 10:44:14;;;;;;;12.63;5.07;;;;;;;;;;5381594;26;20024;-82
2024/04/21 10:46:44;;;;;;;11.63;4.80;;;;;;;;;;5383136;26;20025;-82
2024/04/21 10:49:17;;;;;;;11.00;4.82;;;;;;;;;;5383320;26;20086;-83
2024/04/21 10:51:50;;;;;;;14.55;6.63;;;;;;;;;;5382762;26;20032;-83
2024/04/21 10:54:20;;;;;;;13.15;6.35;;;;;;;;;;5383032;26;20032;-85
2024/04/21 10:56:54;;;;;;;15.23;5.60;;;;;;;;;;5383005;26;20017;-84
2024/04/21 10:59:24;;;;;;;16.40;5.53;;;;;;;;;;5382921;26;20024;-82
2024/04/21 11:01:55;;;;;;;11.05;5.57;;;;;;;;;;5381253;26;20028;-83
2024/04/21 11:04:27;;;;;;;10.43;4.40;;;;;;;;;;5380098;26;20469;-83
2024/04/21 11:06:58;;;;;;;10.13;4.20;;;;;;;;;;5382890;26;20063;-83
2024/04/21 11:09:28;;;;;;;10.75;4.70;;;;;;;;;;5380479;26;20033;-84
2024/04/21 11:11:58;;;;;;;10.93;4.43;;;;;;;;;;5382337;26;20036;-82
2024/04/21 11:14:29;;;;;;;9.48;4.38;;;;;;;;;;5382962;26;20470;-82
2024/04/21 11:17:01;;;;;;;8.25;4.30;;;;;;;;;;5382519;26;20028;-82
2024/04/21 11:19:32;;;;;;;8.55;4.18;;;;;;;;;;5368878;26;20040;-82
2024/04/21 11:22:03;;;;;;;9.82;4.25;;;;;;;;;;5379970;26;20463;-83
2024/04/21 11:24:37;;;;;;;8.57;3.83;;;;;;;;;;5380965;26;20029;-82
2024/04/21 11:27:14;;;;;;;11.80;4.05;;;;;;;;;;5382859;26;20020;-82
2024/04/21 11:29:48;;;;;;;9.88;3.92;;;;;;;;;;5374805;26;20395;-82
2024/04/21 11:32:18;;;;;;;10.63;4.30;;;;;;;;;;5344931;26;20029;-82
2024/04/21 11:34:49;;;;;;;9.05;3.60;;;;;;;;;;5351324;26;20487;-83
2024/04/21 11:37:19;;;;;;;8.00;3.63;;;;;;;;;;5380108;26;20028;-83
2024/04/21 11:39:49;;;;;;;10.48;3.55;;;;;;;;;;5367114;26;20032;-83
2024/04/21 11:42:19;;;;;;;8.40;3.40;;;;;;;;;;5347796;26;20037;-85
2024/04/21 11:44:49;;;;;;;8.02;3.53;;;;;;;;;;5346119;26;20021;-83
2024/04/21 11:47:23;;;;;;;7.07;2.90;;;;;;;;;;5345564;26;20021;-83
2024/04/21 11:49:53;;;;;;;16.83;3.92;;;;;;;;;;5370913;26;20033;-83
2024/04/21 11:52:23;;;;;;;12.48;5.47;;;;;;;;;;5380360;26;20028;-83
2024/04/21 11:54:54;;;;;;;9.05;3.63;;;;;;;;;;5382452;26;20029;-80
2024/04/21 11:57:25;;;;;;;14.25;4.13;;;;;;;;;;5382135;26;20016;-82
2024/04/21 11:59:55;;;;;;;9.60;3.53;;;;;;;;;;5379995;26;20020;-84
2024/04/21 12:02:24;;;;;;;10.05;3.88;;;;;;;;;;5381970;26;20020;-82
2024/04/21 12:04:56;;;;;;;11.20;4.95;;;;;;;;;;5380411;26;20016;-81
2024/04/21 12:07:26;;;;;;;18.38;12.02;;;;;;;;;;5381977;26;20025;-82
2024/04/21 12:09:57;;;;;;;20.58;13.45;;;;;;;;;;5380276;26;20016;-83
2024/04/21 12:12:28;;;;;;;22.90;15.02;;;;;;;;;;5382263;26;20361;-82
2024/04/21 12:15:00;;;;;;;21.70;13.18;;;;;;;;;;5385430;26;20017;-81
2024/04/21 12:17:32;;;;;;;18.92;12.45;;;;;;;;;;5404062;26;19997;-81
2024/04/21 12:20:02;;;;;;;19.50;11.65;;;;;;;;;;5404472;26;20010;-81
2024/04/21 12:22:33;;;;;;;18.48;13.02;;;;;;;;;;5404579;26;19992;-82
2024/04/21 12:25:03;;;;;;;17.27;11.68;;;;;;;;;;5404567;26;19995;-82
2024/04/21 12:27:34;;;;;;;18.75;12.23;;;;;;;;;;5404665;26;20008;-83
2024/04/21 12:30:05;;;;;;;21.75;11.52;;;;;;;;;;5399954;26;20008;-82
2024/04/21 12:32:35;;;;;;;14.82;9.20;;;;;;;;;;5392306;26;20029;-82
2024/04/21 12:35:07;;;;;;;13.38;7.75;;;;;;;;;;5380052;26;20015;-82
2024/04/21 12:37:38;;;;;;;13.45;8.05;;;;;;;;;;5347043;26;20020;-81
2024/04/21 12:40:09;;;;;;;14.73;6.85;;;;;;;;;;5347410;26;20020;-85
2024/04/21 12:42:39;;;;;;;15.98;7.95;;;;;;;;;;5347262;26;20495;-84
2024/04/21 12:45:09;;;;;;;13.20;7.05;;;;;;;;;;5347017;26;20359;-84
2024/04/21 12:47:41;;;;;;;10.48;5.60;;;;;;;;;;5347012;26;20484;-83
2024/04/21 12:50:12;;;;;;;11.30;6.10;;;;;;;;;;5345572;26;20368;-86
2024/04/21 12:52:42;;;;;;;9.45;5.40;;;;;;;;;;5346599;26;20024;-86
2024/04/21 12:55:12;;;;;;;10.65;4.60;;;;;;;;;;5345762;26;20479;-83
2024/04/21 12:57:42;;;;;;;14.55;5.03;;;;;;;;;;5373264;26;20017;-83
2024/04/21 13:00:14;;;;;;;9.68;5.80;;;;;;;;;;5347022;26;20031;-85
2024/04/21 13:02:45;;;;;;;11.80;4.97;;;;;;;;;;5346230;26;20020;-85
2024/04/21 13:05:16;;;;;;;8.25;4.03;;;;;;;;;;5344435;26;20362;-83
2024/04/21 13:07:46;;;;;;;8.45;4.18;;;;;;;;;;5362433;26;20385;-84
2024/04/21 13:10:16;;;;;;;10.30;3.88;;;;;;;;;;5382421;26;20466;-85
2024/04/21 13:12:48;;;;;;;15.40;5.88;;;;;;;;;;5395288;26;20057;-82
2024/04/21 13:15:18;;;;;;;8.48;4.63;;;;;;;;;;5393331;26;20040;-82
2024/04/21 13:17:49;;;;;;;9.52;4.53;;;;;;;;;;5406890;26;20481;-84
2024/04/21 13:20:20;;;;;;;11.60;4.68;;;;;;;;;;5388658;26;20486;-82
2024/04/21 13:22:53;;;;;;;11.02;5.07;;;;;;;;;;5392624;26;20036;-82
2024/04/21 13:25:23;;;;;;;10.13;3.85;;;;;;;;;;5367581;26;20032;-84
2024/04/21 13:27:54;;;;;;;8.00;3.80;;;;;;;;;;5382144;26;20028;-83
2024/04/21 13:30:24;;;;;;;9.52;4.20;;;;;;;;;;5405843;26;20036;-84
2024/04/21 13:32:55;;;;;;;6.82;3.88;;;;;;;;;;5374032;26;20359;-84
2024/04/21 13:35:25;;;;;;;10.98;5.28;;;;;;;;;;5396315;26;20036;-82
2024/04/21 13:37:55;;;;;;;8.95;3.95;;;;;;;;;;5377154;26;20032;-83
2024/04/21 13:40:25;;;;;;;8.27;4.40;;;;;;;;;;5382420;26;20016;-82
2024/04/21 13:42:55;;;;;;;11.93;4.47;;;;;;;;;;5384282;26;20463;-83
2024/04/21 13:45:26;;;;;;;9.95;3.90;;;;;;;;;;5383916;26;20029;-85
2024/04/21 13:47:57;;;;;;;12.43;4.88;;;;;;;;;;5384077;26;20020;-82
2024/04/21 13:50:29;;;;;;;10.70;4.32;;;;;;;;;;5384026;26;20466;-82
2024/04/21 13:52:59;;;;;;;8.95;4.03;;;;;;;;;;5382467;26;20020;-85
2024/04/21 13:55:29;;;;;;;9.15;4.78;;;;;;;;;;5383290;26;20025;-84
2024/04/21 13:57:59;;;;;;;11.35;5.55;;;;;;;;;;5383502;26;20024;-83
2024/04/21 14:00:29;;;;;;;16.08;6.80;;;;;;;;;;5383712;26;20052;-84
2024/04/21 14:02:59;;;;;;;8.65;3.78;;;;;;;;;;5381105;26;20036;-85
2024/04/21 14:05:31;;;;;;;11.13;5.45;;;;;;;;;;5381234;26;20036;-84
2024/04/21 14:08:01;;;;;;;9.85;5.32;;;;;;;;;;5382004;26;20470;-82
2024/04/21 14:10:31;;;;;;;8.68;4.38;;;;;;;;;;5380956;26;20462;-83
2024/04/21 14:13:01;;;;;;;6.57;3.47;;;;;;;;;;5383445;26;20017;-84
2024/04/21 14:15:32;;;;;;;7.47;2.97;;;;;;;;;;5383574;26;20025;-84
2024/04/21 14:18:02;;;;;;;5.07;2.88;;;;;;;;;;5383917;26;20017;-83
2024/04/21 14:20:32;;;;;;;9.02;2.92;;;;;;;;;;5383523;26;20029;-85
2024/04/21 14:23:02;;;;;;;7.80;4.68;;;;;;;;;;5382450;26;20028;-83
2024/04/21 14:25:33;;;;;;;7.38;3.42;;;;;;;;;;5383626;26;20020;-84
2024/04/21 14:28:03;;;;;;;6.85;3.05;;;;;;;;;;5383624;26;20028;-83
2024/04/21 14:30:33;;;;;;;9.48;3.40;;;;;;;;;;5381835;26;20372;-86
2024/04/21 14:33:03;;;;;;;6.03;3.15;;;;;;;;;;5381875;26;20024;-83
2024/04/21 14:35:34;;;;;;;9.73;3.70;;;;;;;;;;5381571;26;20036;-84
2024/04/21 14:38:04;;;;;;;10.82;3.90;;;;;;;;;;5383540;26;20017;-83
2024/04/21 14:40:35;;;;;;;9.05;3.80;;;;;;;;;;5381625;26;20024;-84
2024/04/21 14:43:06;;;;;;;9.70;3.33;;;;;;;;;;5383347;26;20016;-85
2024/04/21 14:45:42;;;;;;;9.63;3.83;;;;;;;;;;5383141;26;20029;-84
2024/04/21 14:48:12;;;;;;;10.35;4.18;;;;;;;;;;5383248;26;20353;-83
2024/04/21 14:50:44;;;;;;;7.95;3.40;;;;;;;;;;5382931;26;20025;-83
2024/04/21 14:53:15;;;;;;;10.40;4.32;;;;;;;;;;5383432;26;20020;-83